Time;durP1;ratioP1;P1;durP2;ratioP2;P2;SDS_P1;SDS_P2;PMS_P1;PMS_P2;Temp;Humidity;BMP_temperature;BMP_pressure;BME280_temperature;BME280_humidity;BME280_pressure;Samples;Min_cycle;Max_cycle;Signal;HPM_P1;HPM_P2
2023/12/27 00:00:44;;;;;;;13.35;3.47;;;;;;;;;;5017304;28;20022;-82
2023/12/27 00:03:10;;;;;;;8.77;3.08;;;;;;;;;;5008018;28;20021;-81
2023/12/27 00:05:36;;;;;;;8.98;2.72;;;;;;;;;;5021033;28;20555;-82
2023/12/27 00:08:02;;;;;;;10.85;2.72;;;;;;;;;;5010860;28;20040;-81
2023/12/27 00:10:28;;;;;;;12.60;2.50;;;;;;;;;;5026962;28;20060;-81
2023/12/27 00:12:54;;;;;;;11.18;3.00;;;;;;;;;;5017044;28;20462;-82
2023/12/27 00:15:20;;;;;;;13.52;3.00;;;;;;;;;;5018171;28;20497;-81
2023/12/27 00:17:46;;;;;;;15.05;3.00;;;;;;;;;;5017172;28;20034;-81
2023/12/27 00:20:12;;;;;;;11.07;3.78;;;;;;;;;;5018424;28;20083;-81
2023/12/27 00:22:38;;;;;;;11.63;3.10;;;;;;;;;;5021167;28;20048;-82
2023/12/27 00:25:04;;;;;;;12.20;3.47;;;;;;;;;;5012899;28;20054;-82
2023/12/27 00:27:30;;;;;;;15.80;3.67;;;;;;;;;;5011778;28;20017;-82
2023/12/27 00:29:56;;;;;;;10.63;3.35;;;;;;;;;;5011812;28;20311;-81
2023/12/27 00:32:22;;;;;;;9.75;3.60;;;;;;;;;;5027024;28;20421;-82
2023/12/27 00:34:49;;;;;;;13.65;4.07;;;;;;;;;;5025106;28;20604;-82
2023/12/27 00:37:15;;;;;;;11.00;3.60;;;;;;;;;;5011959;28;20426;-82
2023/12/27 00:39:41;;;;;;;17.55;3.92;;;;;;;;;;5021055;28;20068;-82
2023/12/27 00:42:08;;;;;;;12.52;3.63;;;;;;;;;;5007214;28;20100;-82
2023/12/27 00:44:34;;;;;;;12.07;3.42;;;;;;;;;;5021320;28;20056;-82
2023/12/27 00:47:00;;;;;;;9.57;3.55;;;;;;;;;;5030878;28;20018;-81
2023/12/27 00:49:26;;;;;;;12.65;3.58;;;;;;;;;;5019366;28;20080;-82
2023/12/27 00:51:52;;;;;;;14.70;3.70;;;;;;;;;;5029310;28;20022;-82
2023/12/27 00:54:18;;;;;;;16.38;3.80;;;;;;;;;;5021662;28;20017;-82
2023/12/27 00:56:45;;;;;;;15.88;3.78;;;;;;;;;;5013191;28;20426;-82
2023/12/27 00:59:11;;;;;;;10.10;3.75;;;;;;;;;;5023001;28;20014;-82
2023/12/27 01:01:37;;;;;;;14.43;3.33;;;;;;;;;;5021443;28;20053;-81
2023/12/27 01:04:03;;;;;;;13.77;4.03;;;;;;;;;;5008949;28;20429;-82
2023/12/27 01:06:29;;;;;;;15.75;4.07;;;;;;;;;;5019316;28;20018;-82
2023/12/27 01:08:55;;;;;;;14.07;3.95;;;;;;;;;;5024279;28;20018;-82
2023/12/27 01:11:21;;;;;;;9.10;3.90;;;;;;;;;;5024375;28;20026;-82
2023/12/27 01:13:47;;;;;;;11.57;4.13;;;;;;;;;;5010317;28;20022;-82
2023/12/27 01:16:15;;;;;;;8.73;3.95;;;;;;;;;;5010715;28;20028;-82
2023/12/27 01:18:41;;;;;;;9.70;4.50;;;;;;;;;;5028576;28;20042;-81
2023/12/27 01:21:07;;;;;;;15.00;4.78;;;;;;;;;;5024924;28;20028;-82
2023/12/27 01:23:33;;;;;;;17.88;4.88;;;;;;;;;;5029505;28;20025;-82
2023/12/27 01:25:59;;;;;;;16.10;5.20;;;;;;;;;;5017578;28;20108;-82
2023/12/27 01:28:25;;;;;;;14.15;5.45;;;;;;;;;;5016156;28;20024;-82
2023/12/27 01:30:51;;;;;;;16.58;6.10;;;;;;;;;;5016438;28;20036;-81
2023/12/27 01:33:17;;;;;;;15.45;5.40;;;;;;;;;;5018298;28;20093;-82
2023/12/27 01:35:45;;;;;;;15.45;6.28;;;;;;;;;;5025742;28;20014;-81
2023/12/27 01:38:11;;;;;;;15.70;6.18;;;;;;;;;;5013306;28;20351;-82
2023/12/27 01:40:37;;;;;;;19.63;6.45;;;;;;;;;;5013198;28;20042;-82
2023/12/27 01:43:03;;;;;;;16.05;5.47;;;;;;;;;;5017845;28;20018;-82
2023/12/27 01:45:29;;;;;;;17.10;6.65;;;;;;;;;;5016640;28;20037;-82
2023/12/27 01:47:56;;;;;;;19.80;6.75;;;;;;;;;;5012762;28;20026;-82
2023/12/27 01:50:22;;;;;;;18.92;6.93;;;;;;;;;;4998826;28;20037;-81
2023/12/27 01:52:48;;;;;;;17.42;6.88;;;;;;;;;;5009438;28;20031;-82
2023/12/27 01:55:14;;;;;;;21.13;7.07;;;;;;;;;;5011333;28;20014;-82
2023/12/27 01:57:40;;;;;;;21.67;7.30;;;;;;;;;;5029791;28;20014;-82
2023/12/27 02:00:10;;;;;;;17.70;7.57;;;;;;;;;;5028237;28;20067;-82
2023/12/27 02:02:38;;;;;;;20.97;7.03;;;;;;;;;;5020903;28;20374;-82
2023/12/27 02:05:04;;;;;;;20.95;7.75;;;;;;;;;;5010403;28;20006;-82
2023/12/27 02:07:30;;;;;;;18.25;7.30;;;;;;;;;;5029463;28;20048;-82
2023/12/27 02:09:57;;;;;;;23.08;9.00;;;;;;;;;;5009342;28;20014;-82
2023/12/27 02:12:24;;;;;;;18.30;7.70;;;;;;;;;;5010611;28;20091;-82
2023/12/27 02:14:50;;;;;;;20.75;8.13;;;;;;;;;;5012381;28;20010;-82
2023/12/27 02:17:16;;;;;;;17.70;7.95;;;;;;;;;;5011704;28;20026;-81
2023/12/27 02:19:43;;;;;;;17.95;8.32;;;;;;;;;;5008223;28;20382;-82
2023/12/27 02:22:12;;;;;;;21.00;9.10;;;;;;;;;;5027309;28;20120;-82
2023/12/27 02:24:39;;;;;;;21.25;9.15;;;;;;;;;;5018678;28;20081;-82
2023/12/27 02:27:05;;;;;;;21.42;9.07;;;;;;;;;;5020609;28;20394;-81
2023/12/27 02:29:31;;;;;;;20.92;8.80;;;;;;;;;;5008984;28;20021;-81
2023/12/27 02:31:57;;;;;;;30.33;10.57;;;;;;;;;;5019265;28;20496;-82
2023/12/27 02:34:23;;;;;;;20.60;9.30;;;;;;;;;;5022878;28;20384;-82
2023/12/27 02:36:49;;;;;;;25.73;10.02;;;;;;;;;;5012607;28;20445;-81
2023/12/27 02:39:15;;;;;;;26.60;10.77;;;;;;;;;;5009005;28;20014;-82
2023/12/27 02:41:41;;;;;;;21.17;9.65;;;;;;;;;;5020982;28;20504;-82
2023/12/27 02:44:07;;;;;;;28.13;10.45;;;;;;;;;;5028143;28;20017;-82
2023/12/27 02:46:33;;;;;;;27.48;10.80;;;;;;;;;;5020943;28;20028;-82
2023/12/27 02:49:00;;;;;;;25.52;11.38;;;;;;;;;;5008870;28;20120;-82
2023/12/27 02:51:26;;;;;;;28.20;11.88;;;;;;;;;;5022576;28;20029;-82
2023/12/27 02:53:52;;;;;;;24.17;11.45;;;;;;;;;;5030253;28;20018;-81
2023/12/27 02:56:18;;;;;;;21.95;10.98;;;;;;;;;;5023591;28;20006;-82
2023/12/27 02:58:44;;;;;;;22.55;10.93;;;;;;;;;;5008630;28;20025;-82
2023/12/27 03:01:10;;;;;;;23.50;11.38;;;;;;;;;;5013151;28;20018;-82
2023/12/27 03:03:36;;;;;;;28.70;11.73;;;;;;;;;;5019628;28;20014;-82
2023/12/27 03:06:02;;;;;;;28.67;12.02;;;;;;;;;;5011399;28;20306;-82
2023/12/27 03:08:29;;;;;;;31.83;12.23;;;;;;;;;;5019972;28;20022;-82
2023/12/27 03:10:55;;;;;;;29.48;11.68;;;;;;;;;;5011222;28;20060;-82
2023/12/27 03:13:22;;;;;;;29.52;11.40;;;;;;;;;;5028392;28;20045;-82
2023/12/27 03:15:48;;;;;;;25.00;11.20;;;;;;;;;;5010669;28;20014;-82
2023/12/27 03:18:14;;;;;;;25.13;11.10;;;;;;;;;;5011090;28;20087;-83
2023/12/27 03:20:40;;;;;;;21.10;9.77;;;;;;;;;;5026445;28;20024;-82
2023/12/27 03:23:06;;;;;;;27.25;9.90;;;;;;;;;;5018878;28;20026;-82
2023/12/27 03:25:32;;;;;;;21.20;9.43;;;;;;;;;;5008214;28;20026;-82
2023/12/27 03:27:58;;;;;;;21.33;10.00;;;;;;;;;;5020354;28;20017;-82
2023/12/27 03:30:24;;;;;;;23.83;9.50;;;;;;;;;;5010925;28;20116;-82
2023/12/27 03:32:50;;;;;;;24.35;10.02;;;;;;;;;;5019130;28;20152;-83
2023/12/27 03:35:16;;;;;;;27.83;10.48;;;;;;;;;;5008199;28;20402;-82
2023/12/27 03:37:44;;;;;;;22.77;10.23;;;;;;;;;;5008921;28;20018;-85
2023/12/27 03:40:11;;;;;;;22.52;10.10;;;;;;;;;;5009710;28;20058;-81
2023/12/27 03:42:37;;;;;;;24.25;10.10;;;;;;;;;;5011219;28;20018;-82
2023/12/27 03:45:03;;;;;;;23.05;10.15;;;;;;;;;;5009139;28;20019;-82
2023/12/27 03:47:29;;;;;;;24.00;10.57;;;;;;;;;;5019422;28;20219;-82
2023/12/27 03:49:55;;;;;;;28.52;11.55;;;;;;;;;;5028002;28;20017;-82
2023/12/27 03:52:21;;;;;;;22.77;11.52;;;;;;;;;;5014745;28;20089;-82
2023/12/27 03:54:47;;;;;;;30.40;11.93;;;;;;;;;;5009250;28;20386;-82
2023/12/27 03:57:13;;;;;;;33.38;12.63;;;;;;;;;;5016692;28;20018;-82
2023/12/27 03:59:39;;;;;;;28.58;11.68;;;;;;;;;;5009119;28;20028;-82
2023/12/27 04:02:05;;;;;;;25.13;12.00;;;;;;;;;;5011408;28;20520;-82
2023/12/27 04:04:33;;;;;;;24.80;11.65;;;;;;;;;;5008039;28;20382;-82
2023/12/27 04:06:59;;;;;;;30.38;11.70;;;;;;;;;;5013155;28;20425;-82
2023/12/27 04:09:25;;;;;;;26.63;12.80;;;;;;;;;;5015071;28;20022;-82
2023/12/27 04:11:51;;;;;;;30.63;12.73;;;;;;;;;;5022063;28;20029;-82
2023/12/27 04:14:18;;;;;;;30.92;12.90;;;;;;;;;;5013076;28;20021;-83
2023/12/27 04:16:44;;;;;;;27.67;12.30;;;;;;;;;;5007151;28;20018;-82
2023/12/27 04:19:10;;;;;;;30.00;12.73;;;;;;;;;;5021750;28;20053;-83
2023/12/27 04:21:36;;;;;;;23.77;11.48;;;;;;;;;;5013551;28;20018;-81
2023/12/27 04:24:02;;;;;;;28.23;12.00;;;;;;;;;;5018576;28;20029;-82
2023/12/27 04:26:28;;;;;;;26.25;11.75;;;;;;;;;;5016052;28;20064;-82
2023/12/27 04:28:54;;;;;;;28.95;11.48;;;;;;;;;;5025368;28;20021;-82
2023/12/27 04:31:20;;;;;;;27.20;11.50;;;;;;;;;;5025011;28;20222;-82
2023/12/27 04:33:46;;;;;;;25.83;11.50;;;;;;;;;;5025265;28;20021;-82
2023/12/27 04:36:12;;;;;;;26.70;11.50;;;;;;;;;;5013579;28;20025;-82
2023/12/27 04:38:38;;;;;;;27.80;12.13;;;;;;;;;;5010592;28;20014;-82
2023/12/27 04:41:08;;;;;;;33.13;12.95;;;;;;;;;;5011099;28;20021;-82
2023/12/27 04:43:34;;;;;;;27.35;12.57;;;;;;;;;;5020999;28;20018;-82
2023/12/27 04:46:00;;;;;;;28.33;12.48;;;;;;;;;;5020090;28;20022;-82
2023/12/27 04:48:26;;;;;;;26.00;11.82;;;;;;;;;;5011418;28;20024;-82
2023/12/27 04:50:52;;;;;;;32.97;12.65;;;;;;;;;;5012295;28;20026;-82
2023/12/27 04:53:18;;;;;;;33.17;13.40;;;;;;;;;;5018312;28;20024;-82
2023/12/27 04:55:44;;;;;;;28.42;12.63;;;;;;;;;;5012801;28;20029;-82
2023/12/27 04:58:10;;;;;;;29.90;13.32;;;;;;;;;;5011829;28;20331;-82
2023/12/27 05:00:36;;;;;;;27.67;12.13;;;;;;;;;;5010526;28;20026;-82
2023/12/27 05:03:02;;;;;;;25.15;12.45;;;;;;;;;;5014172;28;20049;-82
2023/12/27 05:05:28;;;;;;;33.00;13.68;;;;;;;;;;5011109;28;20493;-84
2023/12/27 05:07:55;;;;;;;33.08;16.15;;;;;;;;;;5013590;28;20108;-83
2023/12/27 05:10:21;;;;;;;34.25;20.73;;;;;;;;;;5030578;28;20030;-82
2023/12/27 05:12:47;;;;;;;36.60;20.48;;;;;;;;;;5029805;28;20017;-82
2023/12/27 05:15:13;;;;;;;36.08;18.77;;;;;;;;;;5016206;28;20025;-82
2023/12/27 05:17:39;;;;;;;38.40;19.67;;;;;;;;;;5010284;28;20106;-82
2023/12/27 05:20:06;;;;;;;37.55;20.10;;;;;;;;;;5030892;28;20030;-82
2023/12/27 05:22:34;;;;;;;44.22;20.55;;;;;;;;;;5018456;28;20044;-83
2023/12/27 05:25:03;;;;;;;44.53;21.67;;;;;;;;;;5028473;28;20367;-82
2023/12/27 05:27:29;;;;;;;43.42;20.00;;;;;;;;;;5013284;28;20470;-82
2023/12/27 05:29:55;;;;;;;43.10;20.77;;;;;;;;;;5010175;28;20029;-82
2023/12/27 05:32:21;;;;;;;41.85;20.35;;;;;;;;;;5010220;28;20071;-82
2023/12/27 05:34:47;;;;;;;40.90;20.58;;;;;;;;;;5025820;28;20021;-82
2023/12/27 05:37:14;;;;;;;39.22;18.88;;;;;;;;;;5031395;28;20014;-83
2023/12/27 05:39:40;;;;;;;37.65;18.85;;;;;;;;;;5028379;28;20232;-82
2023/12/27 05:42:06;;;;;;;37.78;17.88;;;;;;;;;;5024450;28;20113;-82
2023/12/27 05:44:32;;;;;;;42.33;18.05;;;;;;;;;;5024130;28;20032;-82
2023/12/27 05:46:58;;;;;;;37.60;16.00;;;;;;;;;;5011166;28;20014;-82
2023/12/27 05:49:24;;;;;;;39.28;15.63;;;;;;;;;;5012898;28;20072;-82
2023/12/27 05:51:50;;;;;;;38.60;15.63;;;;;;;;;;5009368;28;20057;-82
2023/12/27 05:54:18;;;;;;;32.38;14.10;;;;;;;;;;5018095;28;20018;-82
2023/12/27 05:56:44;;;;;;;33.65;15.07;;;;;;;;;;5029528;28;20079;-82
2023/12/27 05:59:10;;;;;;;34.00;14.43;;;;;;;;;;5016991;28;20086;-82
2023/12/27 06:01:36;;;;;;;38.03;14.02;;;;;;;;;;5027461;28;20017;-82
2023/12/27 06:04:05;;;;;;;35.55;13.93;;;;;;;;;;5016810;28;20018;-82
2023/12/27 06:06:31;;;;;;;30.25;12.30;;;;;;;;;;5016501;28;20393;-82
2023/12/27 06:08:57;;;;;;;34.20;13.07;;;;;;;;;;5028212;28;20043;-83
2023/12/27 06:11:23;;;;;;;33.20;13.95;;;;;;;;;;5016113;28;20018;-83
2023/12/27 06:13:49;;;;;;;35.55;13.50;;;;;;;;;;5012001;28;20367;-83
2023/12/27 06:16:15;;;;;;;33.58;13.45;;;;;;;;;;5027932;28;20449;-82
2023/12/27 06:18:41;;;;;;;32.40;13.07;;;;;;;;;;5010928;28;20041;-82
2023/12/27 06:21:10;;;;;;;33.28;12.18;;;;;;;;;;5029728;28;20036;-83
2023/12/27 06:23:36;;;;;;;35.88;13.48;;;;;;;;;;5010482;28;20449;-82
2023/12/27 06:26:02;;;;;;;31.20;12.07;;;;;;;;;;5029191;28;20437;-82
2023/12/27 06:28:28;;;;;;;29.55;11.60;;;;;;;;;;5011186;28;20466;-82
2023/12/27 06:30:54;;;;;;;26.85;11.35;;;;;;;;;;5014116;28;20489;-83
2023/12/27 06:33:20;;;;;;;21.48;10.95;;;;;;;;;;5009889;28;20494;-83
2023/12/27 06:35:47;;;;;;;27.80;10.98;;;;;;;;;;5026448;28;20025;-82
2023/12/27 06:38:13;;;;;;;27.70;10.30;;;;;;;;;;5017858;28;20445;-83
2023/12/27 06:40:39;;;;;;;25.73;9.55;;;;;;;;;;5019732;28;20515;-82
2023/12/27 06:43:06;;;;;;;22.73;9.88;;;;;;;;;;5021996;28;20010;-82
2023/12/27 06:45:34;;;;;;;24.92;9.93;;;;;;;;;;5022959;28;20059;-83
2023/12/27 06:48:02;;;;;;;20.42;8.25;;;;;;;;;;5016764;28;20378;-82
2023/12/27 06:50:28;;;;;;;24.63;8.60;;;;;;;;;;5021641;28;20033;-82
2023/12/27 06:52:55;;;;;;;27.13;8.70;;;;;;;;;;5017463;28;20582;-82
2023/12/27 06:55:21;;;;;;;24.75;8.40;;;;;;;;;;5011375;28;20050;-82
2023/12/27 06:57:47;;;;;;;23.33;8.52;;;;;;;;;;5009165;28;20473;-82
2023/12/27 07:00:13;;;;;;;21.63;9.27;;;;;;;;;;5015960;28;20006;-82
2023/12/27 07:02:40;;;;;;;26.73;8.48;;;;;;;;;;5008955;28;20022;-82
2023/12/27 07:05:07;;;;;;;24.65;8.57;;;;;;;;;;5017021;28;20398;-83
2023/12/27 07:07:33;;;;;;;20.73;8.18;;;;;;;;;;5019729;28;20014;-83
2023/12/27 07:09:59;;;;;;;22.92;8.25;;;;;;;;;;5013094;28;20437;-82
2023/12/27 07:12:25;;;;;;;21.00;7.72;;;;;;;;;;5008990;28;20501;-83
2023/12/27 07:14:52;;;;;;;23.42;8.43;;;;;;;;;;5014872;28;20117;-84
2023/12/27 07:17:20;;;;;;;20.95;7.57;;;;;;;;;;5024315;28;20022;-80
2023/12/27 07:19:46;;;;;;;19.65;7.55;;;;;;;;;;5026428;28;20009;-82
2023/12/27 07:22:13;;;;;;;23.67;8.57;;;;;;;;;;5024984;28;20068;-82
2023/12/27 07:24:39;;;;;;;21.75;8.07;;;;;;;;;;5000349;28;20264;-82
2023/12/27 07:27:05;;;;;;;16.23;7.05;;;;;;;;;;4999954;28;20029;-82
2023/12/27 07:29:34;;;;;;;18.13;7.70;;;;;;;;;;5003326;28;20048;-82
2023/12/27 07:32:00;;;;;;;16.02;6.88;;;;;;;;;;5001748;28;20029;-82
2023/12/27 07:34:26;;;;;;;24.83;7.10;;;;;;;;;;4999495;28;20024;-82
2023/12/27 07:36:52;;;;;;;22.40;7.45;;;;;;;;;;4997368;28;20802;-82
2023/12/27 07:39:18;;;;;;;18.83;7.03;;;;;;;;;;5000206;28;20500;-82
2023/12/27 07:41:44;;;;;;;17.30;5.72;;;;;;;;;;5000142;28;20032;-82
2023/12/27 07:44:10;;;;;;;18.08;6.53;;;;;;;;;;4999504;28;20500;-82
2023/12/27 07:46:36;;;;;;;16.13;5.75;;;;;;;;;;5028918;28;20025;-81
2023/12/27 07:49:02;;;;;;;21.73;5.60;;;;;;;;;;5025942;28;20462;-81
2023/12/27 07:51:28;;;;;;;15.40;6.40;;;;;;;;;;5029851;28;20044;-83
2023/12/27 07:53:55;;;;;;;16.58;5.45;;;;;;;;;;5032434;28;20017;-82
2023/12/27 07:56:21;;;;;;;19.20;5.63;;;;;;;;;;5028940;28;20398;-82
2023/12/27 07:58:50;;;;;;;15.57;5.55;;;;;;;;;;5032480;28;20014;-82
2023/12/27 08:01:16;;;;;;;22.42;5.90;;;;;;;;;;5024251;28;20075;-82
2023/12/27 08:03:44;;;;;;;16.25;5.78;;;;;;;;;;5033477;28;20092;-86
2023/12/27 08:06:10;;;;;;;13.10;5.72;;;;;;;;;;5010204;28;20010;-81
2023/12/27 08:08:36;;;;;;;16.83;5.45;;;;;;;;;;5024296;28;20100;-84
2023/12/27 08:11:06;;;;;;;16.40;5.47;;;;;;;;;;5017061;28;20029;-83
2023/12/27 08:13:32;;;;;;;17.47;6.10;;;;;;;;;;5016199;28;20640;-83
2023/12/27 08:15:58;;;;;;;16.40;5.65;;;;;;;;;;5014092;28;20466;-83
2023/12/27 08:18:24;;;;;;;17.00;5.78;;;;;;;;;;5031176;28;20402;-81
2023/12/27 08:20:50;;;;;;;18.25;5.95;;;;;;;;;;5024450;28;20469;-82
2023/12/27 08:23:17;;;;;;;17.42;6.43;;;;;;;;;;5029095;28;20021;-82
2023/12/27 08:25:43;;;;;;;17.27;6.30;;;;;;;;;;5017818;28;20060;-81
2023/12/27 08:28:09;;;;;;;18.80;6.88;;;;;;;;;;5014188;28;20093;-82
2023/12/27 08:30:35;;;;;;;15.82;7.18;;;;;;;;;;5016011;28;20108;-82
2023/12/27 08:33:01;;;;;;;16.67;6.30;;;;;;;;;;5032345;28;20096;-82
2023/12/27 08:35:27;;;;;;;19.48;6.90;;;;;;;;;;5030803;28;20009;-82
2023/12/27 08:37:53;;;;;;;20.15;6.43;;;;;;;;;;5011554;28;20017;-81
2023/12/27 08:40:20;;;;;;;15.13;6.18;;;;;;;;;;5006424;28;20017;-81
2023/12/27 08:42:46;;;;;;;20.00;6.43;;;;;;;;;;5001950;28;20010;-81
2023/12/27 08:45:14;;;;;;;18.83;6.22;;;;;;;;;;5004223;28;20010;-82
2023/12/27 08:47:40;;;;;;;19.00;6.88;;;;;;;;;;5034370;28;20045;-83
2023/12/27 08:50:06;;;;;;;15.65;6.63;;;;;;;;;;5014504;28;20025;-82
2023/12/27 08:52:32;;;;;;;18.65;6.80;;;;;;;;;;5022349;28;20052;-80
2023/12/27 08:54:58;;;;;;;18.23;6.97;;;;;;;;;;5019431;28;20027;-79
2023/12/27 08:57:24;;;;;;;19.88;6.53;;;;;;;;;;4999530;28;20024;-79
2023/12/27 08:59:50;;;;;;;18.27;6.88;;;;;;;;;;5003073;28;20010;-78
2023/12/27 09:02:17;;;;;;;18.73;6.50;;;;;;;;;;5002915;28;20386;-82
2023/12/27 09:04:43;;;;;;;17.85;7.10;;;;;;;;;;5007049;28;20029;-82
2023/12/27 09:07:09;;;;;;;18.52;8.18;;;;;;;;;;5003997;28;20290;-82
2023/12/27 09:09:35;;;;;;;19.10;6.60;;;;;;;;;;5003602;28;20022;-81
2023/12/27 09:12:04;;;;;;;21.33;7.93;;;;;;;;;;5015972;28;20062;-81
2023/12/27 09:14:30;;;;;;;20.35;7.55;;;;;;;;;;5012387;28;20032;-81
2023/12/27 09:16:56;;;;;;;19.25;7.65;;;;;;;;;;5003276;28;20352;-81
2023/12/27 09:19:22;;;;;;;20.77;8.15;;;;;;;;;;5011031;28;20096;-81
2023/12/27 09:21:48;;;;;;;22.52;8.90;;;;;;;;;;5017833;28;20075;-81
2023/12/27 09:24:14;;;;;;;18.67;8.20;;;;;;;;;;5007832;28;20136;-81
2023/12/27 09:26:41;;;;;;;22.63;9.43;;;;;;;;;;5005082;28;20129;-82
2023/12/27 09:29:10;;;;;;;21.63;8.50;;;;;;;;;;5007031;28;20010;-81
2023/12/27 09:31:36;;;;;;;19.92;8.50;;;;;;;;;;5021145;28;20413;-81
2023/12/27 09:34:02;;;;;;;22.85;9.23;;;;;;;;;;5012912;28;20010;-84
2023/12/27 09:36:29;;;;;;;26.38;9.93;;;;;;;;;;5009671;28;20067;-80
2023/12/27 09:38:55;;;;;;;24.33;9.77;;;;;;;;;;5012135;28;20075;-76
2023/12/27 09:41:21;;;;;;;20.30;8.75;;;;;;;;;;5012621;28;20114;-76
2023/12/27 09:43:48;;;;;;;24.95;10.02;;;;;;;;;;5001593;28;20466;-76
2023/12/27 09:46:14;;;;;;;22.50;9.77;;;;;;;;;;5009824;28;20067;-76
2023/12/27 09:48:41;;;;;;;24.10;10.38;;;;;;;;;;4993852;28;20391;-76
2023/12/27 09:51:07;;;;;;;21.65;9.73;;;;;;;;;;4994833;28;20037;-76
2023/12/27 09:53:33;;;;;;;29.10;9.63;;;;;;;;;;4998364;28;20028;-76
2023/12/27 09:56:00;;;;;;;23.73;10.02;;;;;;;;;;5004713;28;20394;-76
2023/12/27 09:58:30;;;;;;;25.27;8.88;;;;;;;;;;5009647;28;20018;-75
2023/12/27 10:00:58;;;;;;;24.23;9.52;;;;;;;;;;5010400;28;20500;-76
2023/12/27 10:03:44;;;;;;;25.50;9.70;;;;;;;;;;5024538;28;20034;-76
2023/12/27 10:06:13;;;;;;;20.05;10.07;;;;;;;;;;5027520;28;20080;-76
2023/12/27 10:08:40;;;;;;;25.40;9.60;;;;;;;;;;5011125;28;20087;-76
2023/12/27 10:11:08;;;;;;;22.13;9.20;;;;;;;;;;5008571;28;20025;-76
2023/12/27 10:13:36;;;;;;;21.25;9.27;;;;;;;;;;5023922;28;20013;-76
2023/12/27 10:16:04;;;;;;;24.42;8.90;;;;;;;;;;5027220;28;20052;-76
2023/12/27 10:18:30;;;;;;;24.85;10.23;;;;;;;;;;5013516;28;20033;-76
2023/12/27 10:20:56;;;;;;;23.73;10.38;;;;;;;;;;5008360;28;20018;-76
2023/12/27 10:23:23;;;;;;;24.45;9.63;;;;;;;;;;5022336;28;20022;-76
2023/12/27 10:25:51;;;;;;;22.52;9.57;;;;;;;;;;5029155;28;20021;-76
2023/12/27 10:28:17;;;;;;;25.80;10.55;;;;;;;;;;5016616;28;20022;-76
2023/12/27 10:30:45;;;;;;;25.77;10.27;;;;;;;;;;5009084;28;20492;-76
2023/12/27 10:33:11;;;;;;;24.98;11.70;;;;;;;;;;5005290;28;20016;-76
2023/12/27 10:35:45;;;;;;;26.63;10.73;;;;;;;;;;5056325;27;20435;-77
2023/12/27 10:38:11;;;;;;;25.48;9.82;;;;;;;;;;5054729;28;21340;-77
2023/12/27 10:40:40;;;;;;;27.33;11.30;;;;;;;;;;5069920;28;20031;-77
2023/12/27 10:43:07;;;;;;;29.55;11.77;;;;;;;;;;5065211;28;20020;-77
2023/12/27 10:45:33;;;;;;;34.33;14.15;;;;;;;;;;5068773;28;20020;-77
2023/12/27 10:48:00;;;;;;;33.28;12.77;;;;;;;;;;5068714;28;20055;-77
2023/12/27 10:50:27;;;;;;;30.13;11.43;;;;;;;;;;5080609;28;20074;-77
2023/12/27 10:53:02;;;;;;;27.67;11.85;;;;;;;;;;5083051;28;20464;-77
2023/12/27 10:55:28;;;;;;;35.85;14.48;;;;;;;;;;5083458;28;20231;-77
2023/12/27 10:57:55;;;;;;;41.97;15.73;;;;;;;;;;5082708;28;20109;-77
2023/12/27 11:00:24;;;;;;;37.50;14.68;;;;;;;;;;5063408;28;20009;-77
2023/12/27 11:02:51;;;;;;;36.77;14.97;;;;;;;;;;5065043;28;20029;-77
2023/12/27 11:05:22;;;;;;;32.83;14.52;;;;;;;;;;5084867;28;20020;-77
2023/12/27 11:07:49;;;;;;;37.22;13.68;;;;;;;;;;5084540;28;20024;-77
2023/12/27 11:10:16;;;;;;;35.17;14.27;;;;;;;;;;5066127;28;20016;-77
2023/12/27 11:12:45;;;;;;;39.85;15.30;;;;;;;;;;5072216;28;20017;-77
2023/12/27 11:15:11;;;;;;;30.80;12.63;;;;;;;;;;5069945;28;20429;-78
2023/12/27 11:17:37;;;;;;;36.78;13.80;;;;;;;;;;5066185;28;20011;-82
2023/12/27 11:20:04;;;;;;;33.97;14.65;;;;;;;;;;5075061;28;20030;-83
2023/12/27 11:22:31;;;;;;;33.00;14.00;;;;;;;;;;5075644;28;20013;-82
2023/12/27 11:24:58;;;;;;;34.25;13.75;;;;;;;;;;5069881;28;20052;-82
2023/12/27 11:27:24;;;;;;;34.58;15.15;;;;;;;;;;5070401;28;20020;-82
2023/12/27 11:29:50;;;;;;;38.80;16.75;;;;;;;;;;5060212;28;20578;-82
2023/12/27 11:32:16;;;;;;;29.70;14.20;;;;;;;;;;5058933;28;20427;-83
2023/12/27 11:34:42;;;;;;;36.70;16.15;;;;;;;;;;5069932;28;20098;-82
2023/12/27 11:37:08;;;;;;;34.22;16.42;;;;;;;;;;5064133;28;20043;-82
2023/12/27 11:39:35;;;;;;;37.22;15.30;;;;;;;;;;5070503;28;20024;-83
2023/12/27 11:42:02;;;;;;;34.20;15.38;;;;;;;;;;5064033;28;20070;-83
2023/12/27 11:44:39;;;;;;;36.53;15.98;;;;;;;;;;5053459;28;20436;-83
2023/12/27 11:47:09;;;;;;;32.92;14.60;;;;;;;;;;5042306;28;20307;-83
2023/12/27 11:49:35;;;;;;;27.25;14.43;;;;;;;;;;5058276;28;20513;-83
2023/12/27 11:52:01;;;;;;;27.80;14.18;;;;;;;;;;5058314;28;20070;-83
2023/12/27 11:54:28;;;;;;;35.90;17.27;;;;;;;;;;5038007;28;20032;-82
2023/12/27 11:56:54;;;;;;;37.20;16.33;;;;;;;;;;5040803;28;20017;-82
2023/12/27 11:59:27;;;;;;;31.30;16.58;;;;;;;;;;5040928;28;20021;-84
2023/12/27 12:01:55;;;;;;;32.83;15.52;;;;;;;;;;5040126;28;20020;-83
2023/12/27 12:04:30;;;;;;;32.78;17.08;;;;;;;;;;5040066;28;20078;-82
2023/12/27 12:06:56;;;;;;;32.42;16.35;;;;;;;;;;5038629;28;20009;-83
2023/12/27 12:09:41;;;;;;;29.88;16.38;;;;;;;;;;5037393;28;20044;-82
2023/12/27 12:12:17;;;;;;;36.50;16.60;;;;;;;;;;5040502;28;20063;-83
2023/12/27 12:14:43;;;;;;;38.30;17.75;;;;;;;;;;5039700;28;20077;-82
2023/12/27 12:17:10;;;;;;;30.67;16.10;;;;;;;;;;5040370;28;20062;-83
2023/12/27 12:19:36;;;;;;;34.28;17.02;;;;;;;;;;5052136;28;20108;-84
2023/12/27 12:22:03;;;;;;;31.58;16.58;;;;;;;;;;5049770;28;20099;-84
2023/12/27 12:24:29;;;;;;;37.50;17.05;;;;;;;;;;5053348;28;20016;-83
2023/12/27 12:26:56;;;;;;;38.38;18.45;;;;;;;;;;5069047;28;20013;-83
2023/12/27 12:29:24;;;;;;;42.88;18.92;;;;;;;;;;5034012;28;20473;-78
2023/12/27 12:31:50;;;;;;;35.47;16.92;;;;;;;;;;5062745;28;20075;-82
2023/12/27 12:34:16;;;;;;;41.08;18.65;;;;;;;;;;5053688;28;20130;-82
2023/12/27 12:36:43;;;;;;;41.17;19.55;;;;;;;;;;5068662;28;20023;-82
2023/12/27 12:39:13;;;;;;;45.17;19.00;;;;;;;;;;5069964;28;20328;-82
2023/12/27 12:41:40;;;;;;;47.63;20.55;;;;;;;;;;5045997;28;20025;-82
2023/12/27 12:44:08;;;;;;;50.05;20.08;;;;;;;;;;5028842;28;20018;-82
2023/12/27 12:46:34;;;;;;;54.42;21.42;;;;;;;;;;5067651;28;20300;-82
2023/12/27 12:49:00;;;;;;;48.35;20.05;;;;;;;;;;5068976;28;20017;-82
2023/12/27 12:51:27;;;;;;;44.05;19.73;;;;;;;;;;5068479;28;20388;-82
2023/12/27 12:53:55;;;;;;;47.95;20.92;;;;;;;;;;5069829;28;20029;-82
2023/12/27 12:56:22;;;;;;;46.33;20.13;;;;;;;;;;5052078;28;20017;-82
2023/12/27 12:58:48;;;;;;;46.63;20.17;;;;;;;;;;5048203;28;20521;-82
2023/12/27 13:01:14;;;;;;;52.03;20.02;;;;;;;;;;5064265;28;20016;-82
2023/12/27 13:03:44;;;;;;;49.53;20.77;;;;;;;;;;5068309;28;20020;-82
2023/12/27 13:06:14;;;;;;;45.10;19.80;;;;;;;;;;5054378;28;20151;-82
2023/12/27 13:08:40;;;;;;;47.60;19.10;;;;;;;;;;5047347;28;20116;-82
2023/12/27 13:11:10;;;;;;;43.20;19.67;;;;;;;;;;5060354;28;20066;-82
2023/12/27 13:13:37;;;;;;;46.40;19.05;;;;;;;;;;5067689;28;20016;-82
2023/12/27 13:16:03;;;;;;;44.58;19.55;;;;;;;;;;5056558;28;20033;-82
2023/12/27 13:18:30;;;;;;;48.58;19.45;;;;;;;;;;5047820;28;20017;-82
2023/12/27 13:20:56;;;;;;;47.95;20.10;;;;;;;;;;5057848;28;20143;-82
2023/12/27 13:23:22;;;;;;;43.78;19.83;;;;;;;;;;5048180;28;20070;-83
2023/12/27 13:25:49;;;;;;;46.35;20.08;;;;;;;;;;5056534;28;20023;-82
2023/12/27 13:28:19;;;;;;;44.88;19.20;;;;;;;;;;5067935;28;20235;-82
2023/12/27 13:30:45;;;;;;;48.25;18.52;;;;;;;;;;5060080;28;20021;-82
2023/12/27 13:33:11;;;;;;;42.28;18.17;;;;;;;;;;5049093;28;20021;-89
2023/12/27 13:35:37;;;;;;;43.95;18.25;;;;;;;;;;5052886;28;20327;-83
2023/12/27 13:38:03;;;;;;;42.08;18.27;;;;;;;;;;5067832;28;20369;-82
2023/12/27 13:40:31;;;;;;;39.20;17.52;;;;;;;;;;5041768;28;20243;-82
2023/12/27 13:42:57;;;;;;;39.20;17.20;;;;;;;;;;5068979;28;20472;-82
2023/12/27 13:45:23;;;;;;;39.63;16.75;;;;;;;;;;5061614;28;20044;-83
2023/12/27 13:47:49;;;;;;;41.55;17.83;;;;;;;;;;5053014;28;20017;-83
2023/12/27 13:50:15;;;;;;;46.33;18.70;;;;;;;;;;5052654;28;20021;-82
2023/12/27 13:52:41;;;;;;;36.70;17.50;;;;;;;;;;5047699;28;20021;-82
2023/12/27 13:55:07;;;;;;;41.97;17.77;;;;;;;;;;5048643;28;20017;-83
2023/12/27 13:57:33;;;;;;;39.58;17.52;;;;;;;;;;5049862;28;20017;-83
2023/12/27 13:59:59;;;;;;;37.35;16.80;;;;;;;;;;5047321;28;20013;-83
2023/12/27 14:02:25;;;;;;;39.25;18.10;;;;;;;;;;5048846;28;20476;-82
2023/12/27 14:04:51;;;;;;;33.70;15.93;;;;;;;;;;5046934;28;20016;-82
2023/12/27 14:07:17;;;;;;;38.05;16.45;;;;;;;;;;5048127;28;20017;-82
2023/12/27 14:09:44;;;;;;;30.83;14.70;;;;;;;;;;5046363;28;20028;-82
2023/12/27 14:12:10;;;;;;;35.97;16.40;;;;;;;;;;5043132;28;20386;-83
2023/12/27 14:14:36;;;;;;;35.80;16.48;;;;;;;;;;5032129;28;20033;-82
2023/12/27 14:17:02;;;;;;;34.78;15.75;;;;;;;;;;5048781;28;20021;-82
2023/12/27 14:19:28;;;;;;;30.83;14.68;;;;;;;;;;5045257;28;20328;-83